Time;durP1;ratioP1;P1;durP2;ratioP2;P2;SDS_P1;SDS_P2;PMS_P1;PMS_P2;Temp;Humidity;BMP_temperature;BMP_pressure;BME280_temperature;BME280_humidity;BME280_pressure;Samples;Min_cycle;Max_cycle;Signal;HPM_P1;HPM_P2
2022/07/16 00:01:25;;;;;;;1.20;1.10;;;25.50;65.80;;;;;;5076684;28;20503;-91
2022/07/16 00:03:53;;;;;;;1.70;1.30;;;25.50;65.90;;;;;;5075741;28;20518;-92
2022/07/16 00:06:21;;;;;;;1.70;1.60;;;25.50;66.70;;;;;;5075877;28;20539;-91
2022/07/16 00:08:47;;;;;;;1.40;1.10;;;25.50;65.90;;;;;;5075472;28;20532;-91
2022/07/16 00:11:16;;;;;;;1.60;1.30;;;25.50;65.80;;;;;;5075691;28;20544;-92
2022/07/16 00:13:43;;;;;;;1.40;1.20;;;25.50;65.90;;;;;;5075937;28;20536;-92
2022/07/16 00:16:10;;;;;;;1.40;1.30;;;25.50;65.90;;;;;;5075560;28;20496;-92
2022/07/16 00:21:23;;;;;;;1.07;0.97;;;25.50;65.80;;;;;;5075569;28;20495;-91
2022/07/16 00:23:50;;;;;;;1.37;1.17;;;25.50;65.90;;;;;;5075393;28;20470;-91
2022/07/16 00:26:19;;;;;;;1.40;1.20;;;25.50;65.90;;;;;;5075446;28;20821;-90
2022/07/16 00:28:45;;;;;;;1.40;1.30;;;25.50;65.90;;;;;;5075234;28;20901;-91
2022/07/16 00:31:12;;;;;;;1.30;1.20;;;25.50;65.90;;;;;;5075595;28;20476;-91
2022/07/16 00:33:39;;;;;;;1.53;1.43;;;25.40;65.70;;;;;;5075148;28;20552;-90
2022/07/16 00:36:07;;;;;;;1.20;1.10;;;25.50;65.90;;;;;;5075323;28;20939;-91
2022/07/16 00:38:34;;;;;;;1.40;1.30;;;25.50;65.90;;;;;;5075491;28;20480;-91
2022/07/16 00:41:01;;;;;;;1.20;1.10;;;25.50;66.10;;;;;;5075295;28;20781;-91
2022/07/16 00:43:29;;;;;;;1.27;0.93;;;25.50;66.10;;;;;;5074839;28;20447;-91
2022/07/16 00:45:56;;;;;;;1.00;0.90;;;25.50;66.30;;;;;;5074922;28;20527;-90
2022/07/16 00:48:23;;;;;;;2.17;1.17;;;25.50;66.40;;;;;;5074888;28;20520;-91
2022/07/16 00:50:50;;;;;;;2.27;1.30;;;25.50;66.30;;;;;;5073693;28;20543;-91
2022/07/16 00:53:17;;;;;;;1.30;1.20;;;25.50;66.10;;;;;;5074753;28;20448;-91
2022/07/16 00:55:44;;;;;;;1.30;1.20;;;25.50;66.10;;;;;;5074920;28;20513;-91
2022/07/16 00:58:11;;;;;;;1.23;1.13;;;25.50;66.40;;;;;;5074909;28;20511;-92
2022/07/16 01:00:39;;;;;;;2.03;1.20;;;25.50;66.40;;;;;;5074713;28;20445;-92
2022/07/16 01:03:07;;;;;;;1.50;1.40;;;25.50;66.40;;;;;;5074504;28;20834;-90
2022/07/16 01:05:34;;;;;;;2.03;1.10;;;25.50;66.40;;;;;;5074703;28;20565;-91
2022/07/16 01:08:04;;;;;;;2.00;1.13;;;25.50;66.30;;;;;;5074453;28;20988;-91
2022/07/16 01:10:32;;;;;;;1.10;0.97;;;25.50;66.50;;;;;;5074311;28;20469;-91
2022/07/16 01:13:00;;;;;;;1.13;1.00;;;25.50;66.50;;;;;;5074353;28;20532;-91
2022/07/16 01:15:27;;;;;;;1.33;0.90;;;25.50;66.60;;;;;;5074546;28;20529;-90
2022/07/16 01:17:55;;;;;;;1.30;1.20;;;25.50;66.70;;;;;;5074245;28;20551;-91
2022/07/16 01:20:23;;;;;;;1.30;1.20;;;25.50;66.60;;;;;;5074179;28;20469;-91
2022/07/16 01:22:53;;;;;;;1.40;1.07;;;25.50;66.70;;;;;;5074776;28;20840;-91
2022/07/16 01:25:21;;;;;;;1.47;1.27;;;25.50;66.60;;;;;;5073842;28;21054;-90
2022/07/16 01:27:48;;;;;;;1.20;1.10;;;25.50;66.40;;;;;;5073852;28;20576;-91
2022/07/16 01:30:15;;;;;;;1.00;0.90;;;25.50;66.70;;;;;;5074270;28;20531;-92
2022/07/16 01:32:42;;;;;;;1.27;1.07;;;25.50;66.80;;;;;;5073980;28;20502;-91
2022/07/16 01:35:10;;;;;;;1.30;1.10;;;25.50;66.60;;;;;;5074432;28;20995;-91
2022/07/16 01:37:37;;;;;;;2.43;1.20;;;25.50;66.60;;;;;;5074126;28;20452;-92
2022/07/16 01:40:05;;;;;;;1.30;1.17;;;25.50;66.60;;;;;;5074215;28;20464;-91
2022/07/16 01:42:33;;;;;;;1.30;1.20;;;25.50;66.70;;;;;;5074038;28;20445;-91
2022/07/16 01:45:00;;;;;;;1.50;1.40;;;25.50;66.80;;;;;;5073848;28;20907;-92
2022/07/16 01:47:28;;;;;;;1.20;1.00;;;25.50;66.60;;;;;;5073700;28;20496;-90
2022/07/16 01:49:54;;;;;;;1.30;1.20;;;25.50;66.60;;;;;;5074473;28;20476;-91
2022/07/16 01:52:23;;;;;;;1.40;1.30;;;25.50;66.70;;;;;;5073846;28;20476;-91
2022/07/16 01:54:51;;;;;;;2.10;1.10;;;25.50;66.70;;;;;;5073919;28;20962;-91
2022/07/16 01:57:19;;;;;;;1.00;0.80;;;25.50;66.80;;;;;;5073370;28;20543;-92
2022/07/16 01:59:49;;;;;;;1.30;1.20;;;25.50;66.80;;;;;;5073374;28;20663;-92
2022/07/16 02:02:16;;;;;;;1.30;1.20;;;25.50;66.60;;;;;;5073067;28;20913;-92
2022/07/16 02:04:43;;;;;;;1.53;1.43;;;25.50;66.70;;;;;;5073511;28;20899;-91
2022/07/16 02:07:10;;;;;;;1.20;1.00;;;25.50;66.70;;;;;;5073321;28;20441;-92
2022/07/16 02:09:37;;;;;;;1.40;1.20;;;25.50;66.90;;;;;;5073435;28;20795;-92
2022/07/16 02:12:05;;;;;;;1.30;1.13;;;25.50;66.60;;;;;;5073518;28;20449;-92
2022/07/16 02:14:32;;;;;;;1.63;1.20;;;25.50;66.80;;;;;;5073350;28;20477;-92
2022/07/16 02:17:00;;;;;;;1.40;1.27;;;25.50;66.70;;;;;;5073284;28;20500;-91
2022/07/16 02:19:27;;;;;;;1.40;1.10;;;25.50;66.80;;;;;;5073378;28;20544;-92
2022/07/16 02:21:54;;;;;;;1.30;1.20;;;25.50;66.70;;;;;;5073490;28;20441;-92
2022/07/16 02:24:21;;;;;;;1.30;1.20;;;25.50;66.80;;;;;;5073116;28;20468;-91
2022/07/16 02:26:48;;;;;;;1.00;0.90;;;25.50;66.90;;;;;;5072774;28;20477;-90
2022/07/16 02:29:15;;;;;;;1.50;1.30;;;25.50;66.80;;;;;;5073263;28;20468;-91
2022/07/16 02:31:42;;;;;;;1.40;1.30;;;25.50;66.90;;;;;;5073077;28;20502;-92
2022/07/16 02:34:10;;;;;;;1.30;1.13;;;25.50;66.90;;;;;;5073061;28;20544;-92
2022/07/16 02:36:37;;;;;;;1.30;1.10;;;25.50;66.80;;;;;;5072938;28;20492;-92
2022/07/16 02:39:04;;;;;;;1.20;0.93;;;25.50;66.90;;;;;;5073112;28;20863;-91
2022/07/16 02:41:31;;;;;;;1.27;0.90;;;25.50;66.80;;;;;;5072937;28;20498;-92
2022/07/16 02:43:58;;;;;;;1.43;1.00;;;25.50;66.90;;;;;;5073005;28;20533;-92
2022/07/16 02:46:25;;;;;;;1.50;1.40;;;25.50;66.80;;;;;;5072820;28;21050;-92
2022/07/16 02:48:52;;;;;;;1.23;1.00;;;25.50;66.60;;;;;;5071813;28;20875;-92
2022/07/16 02:51:20;;;;;;;1.20;1.10;;;25.50;66.80;;;;;;5072128;28;20864;-92
2022/07/16 02:53:47;;;;;;;1.30;1.20;;;25.50;66.80;;;;;;5072726;28;20484;-91
2022/07/16 02:56:14;;;;;;;1.40;1.30;;;25.50;66.80;;;;;;5072943;28;20441;-91
2022/07/16 02:58:41;;;;;;;1.33;1.20;;;25.50;66.80;;;;;;5073267;28;20490;-91
2022/07/16 03:01:08;;;;;;;1.20;1.10;;;25.50;66.90;;;;;;5072902;28;20529;-91
2022/07/16 03:03:35;;;;;;;1.37;1.17;;;25.50;66.70;;;;;;5073171;28;20443;-92
2022/07/16 03:06:03;;;;;;;2.13;1.37;;;25.50;66.60;;;;;;5072971;28;20488;-91
2022/07/16 03:08:31;;;;;;;1.50;1.27;;;25.50;66.80;;;;;;5073038;28;20499;-92
2022/07/16 03:10:58;;;;;;;1.20;1.00;;;25.50;66.70;;;;;;5072959;28;20540;-92
2022/07/16 03:13:25;;;;;;;1.10;1.00;;;25.50;66.80;;;;;;5072683;28;20528;-92
2022/07/16 03:15:53;;;;;;;1.20;1.10;;;25.50;66.90;;;;;;5075411;28;20507;-92
2022/07/16 03:18:21;;;;;;;1.10;1.00;;;25.50;66.60;;;;;;5076453;28;20444;-93
2022/07/16 03:20:48;;;;;;;1.30;1.20;;;25.50;66.80;;;;;;5076480;28;20446;-91
2022/07/16 03:23:15;;;;;;;1.20;1.10;;;25.50;66.80;;;;;;5076250;28;20480;-91
2022/07/16 03:25:43;;;;;;;1.30;1.20;;;25.50;66.60;;;;;;5076466;28;20567;-92
2022/07/16 03:28:10;;;;;;;1.20;0.90;;;25.50;66.70;;;;;;5075883;28;20508;-92
2022/07/16 03:30:37;;;;;;;1.10;0.90;;;25.50;66.90;;;;;;5076213;28;20481;-91
2022/07/16 03:33:04;;;;;;;1.30;0.90;;;25.50;66.80;;;;;;5076319;28;20532;-92
2022/07/16 03:35:32;;;;;;;1.30;1.20;;;25.50;66.80;;;;;;5076070;28;20445;-91
2022/07/16 03:40:44;;;;;;;1.30;1.10;;;25.50;66.60;;;;;;5076282;28;20412;-91
2022/07/16 03:43:11;;;;;;;1.50;1.30;;;25.50;66.90;;;;;;5076024;28;20873;-91
2022/07/16 03:45:38;;;;;;;1.13;1.03;;;25.50;66.90;;;;;;5075571;28;20572;-91
2022/07/16 03:48:06;;;;;;;1.20;1.10;;;25.50;66.90;;;;;;5075586;28;20449;-92
2022/07/16 03:50:33;;;;;;;1.37;0.93;;;25.50;66.90;;;;;;5076026;28;20476;-91
2022/07/16 03:52:59;;;;;;;1.37;1.27;;;25.40;66.60;;;;;;5075940;28;20484;-92
2022/07/16 03:55:26;;;;;;;1.20;0.90;;;25.50;66.90;;;;;;5075882;28;20484;-92
2022/07/16 03:57:55;;;;;;;1.20;1.10;;;25.50;66.90;;;;;;5075748;28;20523;-92
2022/07/16 04:00:21;;;;;;;1.23;1.13;;;25.50;66.70;;;;;;5075505;28;20955;-92
2022/07/16 04:02:48;;;;;;;1.10;1.00;;;25.50;66.70;;;;;;5075572;28;20448;-91
2022/07/16 04:05:15;;;;;;;1.10;1.00;;;25.50;66.70;;;;;;5075307;28;20487;-92
2022/07/16 04:07:42;;;;;;;1.17;1.07;;;25.50;66.80;;;;;;5075594;28;20999;-92
2022/07/16 04:10:09;;;;;;;1.83;1.10;;;25.50;66.80;;;;;;5075520;28;20889;-92
2022/07/16 04:12:36;;;;;;;1.30;1.17;;;25.40;66.60;;;;;;5075646;28;20469;-91
2022/07/16 04:15:05;;;;;;;1.10;0.90;;;25.50;66.80;;;;;;5075115;28;20445;-92
2022/07/16 04:17:33;;;;;;;2.03;1.17;;;25.50;66.90;;;;;;5075405;28;20547;-92
2022/07/16 04:20:00;;;;;;;1.10;1.00;;;25.50;66.70;;;;;;5075133;28;20488;-91
2022/07/16 04:22:26;;;;;;;1.20;1.10;;;25.50;66.80;;;;;;5075371;28;20481;-92
2022/07/16 04:24:53;;;;;;;1.20;1.10;;;25.50;66.80;;;;;;5075162;28;20469;-92
2022/07/16 04:27:20;;;;;;;1.17;1.03;;;25.40;67.50;;;;;;5074827;28;20504;-92
2022/07/16 04:29:47;;;;;;;1.30;1.20;;;25.50;66.70;;;;;;5075256;28;20460;-91
2022/07/16 04:32:15;;;;;;;1.20;1.10;;;25.50;66.90;;;;;;5074897;28;20481;-92
2022/07/16 04:34:42;;;;;;;1.20;1.10;;;25.50;66.90;;;;;;5075107;28;20499;-92
2022/07/16 04:37:09;;;;;;;1.73;1.30;;;25.40;66.60;;;;;;5075186;28;20475;-91
2022/07/16 04:39:36;;;;;;;1.20;1.00;;;25.50;66.80;;;;;;5074951;28;20475;-91
2022/07/16 04:42:03;;;;;;;1.30;1.10;;;25.40;66.80;;;;;;5074792;28;20441;-92
2022/07/16 04:44:30;;;;;;;1.20;0.90;;;25.50;66.90;;;;;;5074792;28;20479;-91
2022/07/16 04:46:57;;;;;;;1.10;1.00;;;25.50;66.80;;;;;;5074352;28;20575;-92
2022/07/16 04:49:25;;;;;;;1.20;1.00;;;25.50;66.80;;;;;;5074530;28;20540;-91
2022/07/16 04:51:52;;;;;;;1.10;1.00;;;25.50;66.70;;;;;;5074635;28;20481;-91
2022/07/16 04:54:21;;;;;;;1.30;1.20;;;25.50;66.80;;;;;;5074537;28;20445;-91
2022/07/16 04:56:48;;;;;;;1.03;0.93;;;25.40;66.70;;;;;;5074363;28;20429;-91
2022/07/16 04:59:14;;;;;;;1.27;1.13;;;25.50;66.60;;;;;;5074259;28;20947;-92
2022/07/16 05:01:42;;;;;;;1.20;1.10;;;25.40;66.60;;;;;;5074684;28;20551;-91
2022/07/16 05:04:09;;;;;;;1.40;1.30;;;25.40;66.50;;;;;;5075679;28;20520;-92
2022/07/16 05:06:37;;;;;;;1.13;0.90;;;25.50;66.70;;;;;;5076644;28;20520;-91
2022/07/16 05:09:04;;;;;;;1.00;0.90;;;25.40;66.60;;;;;;5074708;28;20484;-90
2022/07/16 05:11:31;;;;;;;1.10;0.90;;;25.40;66.60;;;;;;5074507;28;20449;-91
2022/07/16 05:13:58;;;;;;;1.07;0.90;;;25.40;66.70;;;;;;5074079;28;20547;-91
2022/07/16 05:16:25;;;;;;;1.20;0.90;;;25.50;66.80;;;;;;5073927;28;20552;-91
2022/07/16 05:18:53;;;;;;;1.10;1.00;;;25.40;66.80;;;;;;5074253;28;20445;-91
2022/07/16 05:21:19;;;;;;;1.23;1.13;;;25.40;66.70;;;;;;5074024;28;20483;-91
2022/07/16 05:23:48;;;;;;;1.30;1.17;;;25.40;66.80;;;;;;5073850;28;20874;-91
2022/07/16 05:26:15;;;;;;;1.00;0.90;;;25.50;66.90;;;;;;5073960;28;20520;-90
2022/07/16 05:28:42;;;;;;;1.33;1.10;;;25.40;66.90;;;;;;5073689;28;20471;-91
2022/07/16 05:31:09;;;;;;;1.20;1.10;;;25.40;66.90;;;;;;5074172;28;20445;-90
2022/07/16 05:33:35;;;;;;;1.10;1.00;;;25.40;67.80;;;;;;5073816;28;20530;-92
2022/07/16 05:36:02;;;;;;;1.33;1.00;;;25.50;67.00;;;;;;5073648;28;20924;-91
2022/07/16 05:38:29;;;;;;;1.43;1.20;;;25.50;67.00;;;;;;5073327;28;20818;-91
2022/07/16 05:40:57;;;;;;;1.20;1.00;;;25.40;66.90;;;;;;5073666;28;20444;-91
2022/07/16 05:43:24;;;;;;;1.20;1.10;;;25.40;66.90;;;;;;5073936;28;20543;-91
2022/07/16 05:45:51;;;;;;;1.60;1.00;;;25.50;67.00;;;;;;5073214;28;20528;-92
2022/07/16 05:48:18;;;;;;;1.00;0.90;;;25.40;66.90;;;;;;5073886;28;20532;-91
2022/07/16 05:50:45;;;;;;;1.20;1.10;;;25.40;66.90;;;;;;5073519;28;20488;-91
2022/07/16 05:53:12;;;;;;;1.00;0.90;;;25.40;66.90;;;;;;5073458;28;20511;-91
2022/07/16 05:55:39;;;;;;;1.27;0.90;;;25.40;66.90;;;;;;5073499;28;20552;-90
2022/07/16 05:58:07;;;;;;;1.40;1.30;;;25.40;67.00;;;;;;5073560;28;20499;-91
2022/07/16 06:00:34;;;;;;;1.10;0.90;;;25.40;67.00;;;;;;5073707;28;20531;-91
2022/07/16 06:03:01;;;;;;;1.07;0.90;;;25.40;67.00;;;;;;5073350;28;20449;-91
2022/07/16 06:05:28;;;;;;;1.20;1.03;;;25.50;67.10;;;;;;5073581;28;20456;-91
2022/07/16 06:07:55;;;;;;;1.53;1.43;;;25.40;67.00;;;;;;5073248;28;20451;-91
2022/07/16 06:10:21;;;;;;;1.07;0.90;;;25.40;67.00;;;;;;5073693;28;20436;-91
2022/07/16 06:12:49;;;;;;;1.10;0.90;;;25.50;67.10;;;;;;5073597;28;20800;-91
2022/07/16 06:15:17;;;;;;;1.17;0.90;;;25.50;67.10;;;;;;5073499;28;20916;-90
2022/07/16 06:17:44;;;;;;;1.00;0.90;;;25.50;67.10;;;;;;5073125;28;20472;-91
2022/07/16 06:20:12;;;;;;;1.40;0.90;;;25.40;67.00;;;;;;5073400;28;20514;-90
2022/07/16 06:22:40;;;;;;;1.50;1.20;;;25.40;67.10;;;;;;5073533;28;20471;-91
2022/07/16 06:25:07;;;;;;;1.10;0.90;;;25.40;67.00;;;;;;5072985;28;20543;-92
2022/07/16 06:27:34;;;;;;;1.10;0.90;;;25.40;67.10;;;;;;5072823;28;20488;-92
2022/07/16 06:30:05;;;;;;;1.00;0.90;;;25.40;67.10;;;;;;5072980;28;20535;-91
2022/07/16 06:32:33;;;;;;;1.40;1.27;;;25.40;67.10;;;;;;5072985;28;20950;-91
2022/07/16 06:35:00;;;;;;;1.00;0.90;;;25.40;67.10;;;;;;5072846;28;20536;-92
2022/07/16 06:37:27;;;;;;;1.00;0.83;;;25.40;67.10;;;;;;5073291;28;20445;-91
2022/07/16 06:39:54;;;;;;;1.10;0.90;;;25.50;67.20;;;;;;5072975;28;20532;-91
2022/07/16 06:42:21;;;;;;;1.10;1.00;;;25.40;67.10;;;;;;5073241;28;20539;-91
2022/07/16 06:44:47;;;;;;;1.20;1.10;;;25.40;67.20;;;;;;5072936;28;20555;-91
2022/07/16 06:47:14;;;;;;;1.13;1.03;;;25.40;67.10;;;;;;5072805;28;20524;-92
2022/07/16 06:49:42;;;;;;;1.07;0.90;;;25.40;67.20;;;;;;5074557;28;20455;-91
2022/07/16 06:52:09;;;;;;;1.30;1.10;;;25.40;67.20;;;;;;5076844;28;20445;-91
2022/07/16 06:54:36;;;;;;;1.10;1.00;;;25.40;67.20;;;;;;5076737;28;20476;-92
2022/07/16 06:57:03;;;;;;;1.07;0.93;;;25.40;67.20;;;;;;5076242;28;20535;-92
2022/07/16 06:59:30;;;;;;;1.40;1.13;;;25.40;67.10;;;;;;5076037;28;20821;-86
2022/07/16 07:01:57;;;;;;;1.20;1.10;;;25.40;67.20;;;;;;5076087;28;20461;-90
2022/07/16 07:04:24;;;;;;;1.00;0.90;;;25.40;67.10;;;;;;5077043;28;20444;-89
2022/07/16 07:06:52;;;;;;;1.10;0.90;;;25.40;67.10;;;;;;5076820;28;20519;-89
2022/07/16 07:09:19;;;;;;;1.00;0.90;;;25.40;67.10;;;;;;5076521;28;20939;-87
2022/07/16 07:11:46;;;;;;;1.23;1.13;;;25.50;67.20;;;;;;5076612;28;20447;-89
2022/07/16 07:14:12;;;;;;;1.00;0.90;;;25.40;67.30;;;;;;5079980;28;20932;-92
2022/07/16 07:16:39;;;;;;;1.07;0.87;;;25.40;67.40;;;;;;5089162;23;20480;-83
2022/07/16 07:19:06;;;;;;;7.33;1.43;;;25.40;67.40;;;;;;5078405;28;20476;-89
2022/07/16 07:21:33;;;;;;;5.03;1.67;;;25.40;67.00;;;;;;5081390;28;20441;-81
2022/07/16 07:24:02;;;;;;;3.77;1.23;;;25.30;66.50;;;;;;5067712;28;20449;-90
2022/07/16 07:26:28;;;;;;;10.70;2.37;;;25.30;66.50;;;;;;5065414;28;20568;-82
2022/07/16 07:28:55;;;;;;;5.23;1.23;;;25.30;66.60;;;;;;5058635;28;20418;-82
2022/07/16 07:31:22;;;;;;;1.60;1.00;;;25.30;66.60;;;;;;5059995;28;20445;-95
2022/07/16 07:33:49;;;;;;;6.23;1.30;;;25.30;66.60;;;;;;5057243;28;20449;-82
2022/07/16 07:36:16;;;;;;;2.50;1.40;;;25.30;66.60;;;;;;5059128;28;20469;-82
2022/07/16 07:38:43;;;;;;;1.70;1.10;;;25.20;66.70;;;;;;5056945;28;20434;-82
2022/07/16 07:41:11;;;;;;;3.43;1.30;;;25.20;66.30;;;;;;5057217;28;20545;-82
2022/07/16 07:43:38;;;;;;;5.17;1.70;;;25.20;65.90;;;;;;5056292;28;20529;-82
2022/07/16 07:46:06;;;;;;;2.03;1.53;;;25.30;65.60;;;;;;5057556;28;20468;-82
2022/07/16 07:48:33;;;;;;;2.30;1.30;;;25.40;65.70;;;;;;5056668;28;20476;-83
2022/07/16 07:51:00;;;;;;;3.83;1.00;;;25.40;65.80;;;;;;5057536;28;20518;-84
2022/07/16 07:53:27;;;;;;;1.93;1.20;;;25.40;66.00;;;;;;5057197;28;20937;-96
2022/07/16 07:55:54;;;;;;;1.93;1.20;;;25.40;66.20;;;;;;5056196;28;20529;-96
2022/07/16 07:58:22;;;;;;;5.30;2.17;;;25.40;66.40;;;;;;5056492;28;20536;-87
2022/07/16 08:00:51;;;;;;;3.10;1.13;;;25.40;66.30;;;;;;5055873;28;20549;-92
2022/07/16 08:03:17;;;;;;;3.33;1.23;;;25.40;66.30;;;;;;5056257;28;20442;-83
2022/07/16 08:05:46;;;;;;;1.90;1.13;;;25.40;66.50;;;;;;5056233;28;20525;-82
2022/07/16 08:08:13;;;;;;;2.47;1.03;;;25.40;66.50;;;;;;5064719;28;21078;-96
2022/07/16 08:10:40;;;;;;;3.43;1.40;;;25.50;66.60;;;;;;5080171;28;20509;-96
2022/07/16 08:13:07;;;;;;;3.37;1.20;;;25.50;66.70;;;;;;5083462;28;20465;-88
2022/07/16 08:15:35;;;;;;;1.57;1.13;;;25.50;66.60;;;;;;5085487;28;20995;-82
2022/07/16 08:18:02;;;;;;;3.97;1.50;;;25.50;66.50;;;;;;5082949;28;20469;-82
2022/07/16 08:20:29;;;;;;;3.43;1.10;;;25.40;66.40;;;;;;5086986;28;20472;-85
2022/07/16 08:22:56;;;;;;;1.80;1.10;;;25.40;66.50;;;;;;5085526;28;20464;-82
2022/07/16 08:28:07;;;;;;;1.60;1.10;;;25.50;66.40;;;;;;5081612;28;20460;-83
2022/07/16 08:30:35;;;;;;;1.97;0.90;;;25.50;66.60;;;;;;5081655;28;20516;-82
2022/07/16 08:33:02;;;;;;;1.57;1.10;;;25.50;66.50;;;;;;5081997;28;20447;-82
2022/07/16 08:35:29;;;;;;;3.73;1.47;;;25.50;66.60;;;;;;5074668;28;20536;-92
2022/07/16 08:37:56;;;;;;;1.53;1.17;;;25.50;66.60;;;;;;5074438;28;20451;-93
2022/07/16 08:40:25;;;;;;;3.03;1.50;;;25.50;66.60;;;;;;5074624;28;20449;-84
2022/07/16 08:42:52;;;;;;;4.53;1.23;;;25.50;66.70;;;;;;5074563;28;20459;-85
2022/07/16 08:45:22;;;;;;;1.40;1.17;;;25.50;66.70;;;;;;5074688;28;20433;-85
2022/07/16 08:47:52;;;;;;;2.10;1.23;;;25.50;66.70;;;;;;5074312;28;20492;-85
2022/07/16 08:50:18;;;;;;;1.23;1.13;;;25.50;66.80;;;;;;5074440;28;20966;-84
2022/07/16 08:52:50;;;;;;;1.20;1.00;;;25.50;66.80;;;;;;5074850;28;20437;-90
2022/07/16 08:55:17;;;;;;;2.67;1.20;;;25.50;66.80;;;;;;5075115;28;20457;-84
2022/07/16 08:57:48;;;;;;;1.50;1.00;;;25.50;66.80;;;;;;5074868;28;20445;-92
2022/07/16 09:00:16;;;;;;;2.30;1.10;;;25.50;66.60;;;;;;5074933;28;20437;-96
2022/07/16 09:02:43;;;;;;;1.80;0.87;;;25.50;66.60;;;;;;5074832;28;20441;-82
2022/07/16 09:05:11;;;;;;;2.07;1.47;;;25.50;66.70;;;;;;5074696;28;20467;-82
2022/07/16 09:07:38;;;;;;;1.63;1.00;;;25.50;66.70;;;;;;5074634;28;20520;-82
2022/07/16 09:10:08;;;;;;;1.83;1.10;;;25.50;66.70;;;;;;5074964;28;20924;-82
2022/07/16 09:12:37;;;;;;;2.03;1.10;;;25.60;66.80;;;;;;5074235;28;20532;-96
2022/07/16 09:15:27;;;;;;;2.30;1.17;;;25.50;66.70;;;;;;5074362;28;20460;-82
2022/07/16 09:18:08;;;;;;;2.03;0.97;;;25.60;66.80;;;;;;5074042;28;21057;-82
2022/07/16 09:20:37;;;;;;;1.90;1.23;;;25.60;66.80;;;;;;5074453;28;20452;-82
2022/07/16 09:23:04;;;;;;;1.30;1.00;;;25.50;66.80;;;;;;5074214;28;20519;-82
2022/07/16 09:25:32;;;;;;;1.00;0.80;;;25.60;66.80;;;;;;5074558;28;20472;-85
2022/07/16 09:57:30;;;;;;;3.43;1.00;;;25.50;66.70;;;;;;5073787;28;20389;-90
2022/07/16 09:59:58;;;;;;;3.20;1.00;;;25.50;66.90;;;;;;5073394;28;20542;-83
2022/07/16 10:02:25;;;;;;;1.63;1.17;;;25.50;67.00;;;;;;5073707;28;20795;-85
2022/07/16 10:04:52;;;;;;;2.80;1.10;;;25.50;66.60;;;;;;5073045;28;20441;-81
2022/07/16 10:07:19;;;;;;;1.90;0.90;;;25.50;66.50;;;;;;5073044;28;20487;-93
2022/07/16 10:09:46;;;;;;;3.87;1.00;;;25.50;66.30;;;;;;5073034;28;20808;-81
2022/07/16 10:12:15;;;;;;;8.43;1.63;;;25.50;66.40;;;;;;5073161;28;20441;-81
2022/07/16 10:14:47;;;;;;;1.73;1.10;;;25.60;66.50;;;;;;5073315;28;20440;-81
2022/07/16 10:17:15;;;;;;;1.60;1.13;;;25.60;67.30;;;;;;5073067;28;20563;-81
2022/07/16 10:19:43;;;;;;;4.80;1.10;;;25.60;66.50;;;;;;5073192;28;20527;-82
2022/07/16 10:22:16;;;;;;;2.53;1.00;;;25.60;66.50;;;;;;5072117;28;20441;-80
2022/07/16 10:24:48;;;;;;;3.83;1.67;;;25.60;66.40;;;;;;5074507;28;20527;-81
2022/07/16 10:27:25;;;;;;;2.13;1.10;;;25.60;66.40;;;;;;5076061;28;20524;-91
2022/07/16 10:30:08;;;;;;;1.30;0.90;;;25.60;66.40;;;;;;5075947;28;20962;-81
2022/07/16 10:33:12;;;;;;;1.50;0.90;;;25.60;66.40;;;;;;5076139;28;20436;-81
2022/07/16 10:35:50;;;;;;;1.40;1.30;;;25.60;66.40;;;;;;5076181;28;20448;-81
2022/07/16 10:38:20;;;;;;;3.73;1.00;;;25.60;66.50;;;;;;5077058;28;20451;-81
2022/07/16 10:41:04;;;;;;;1.40;1.00;;;25.60;66.50;;;;;;5076980;28;20436;-81
2022/07/16 10:43:31;;;;;;;1.60;1.10;;;25.60;66.50;;;;;;5077335;28;20527;-92
2022/07/16 10:46:01;;;;;;;1.40;0.80;;;25.60;66.30;;;;;;5076792;28;20461;-83
2022/07/16 10:48:29;;;;;;;1.00;0.90;;;25.60;66.30;;;;;;5076760;28;20538;-92
2022/07/16 10:51:13;;;;;;;1.83;1.00;;;25.60;66.10;;;;;;5076722;28;20528;-81
2022/07/16 10:54:29;;;;;;;2.07;0.90;;;25.60;66.20;;;;;;5076748;28;20475;-82
2022/07/16 10:56:59;;;;;;;1.20;0.80;;;25.60;66.40;;;;;;5076577;28;20852;-91
2022/07/16 10:59:28;;;;;;;1.73;0.90;;;25.60;66.60;;;;;;5076181;28;21006;-91
2022/07/16 11:01:58;;;;;;;1.30;1.20;;;25.60;66.60;;;;;;5076885;28;20444;-90
2022/07/16 11:04:36;;;;;;;5.27;1.40;;;25.60;66.50;;;;;;5076782;28;20802;-82
2022/07/16 11:07:07;;;;;;;2.30;1.13;;;25.60;66.40;;;;;;5076386;28;20535;-82
2022/07/16 11:09:35;;;;;;;2.50;1.00;;;25.60;66.60;;;;;;5076474;28;20502;-81
2022/07/16 11:12:11;;;;;;;1.80;1.00;;;25.60;66.60;;;;;;5076463;28;20531;-85
2022/07/16 11:14:40;;;;;;;1.40;1.23;;;25.60;66.60;;;;;;5076299;28;20943;-82
2022/07/16 11:17:09;;;;;;;1.70;1.10;;;25.60;66.60;;;;;;5075207;28;20479;-82
2022/07/16 11:19:37;;;;;;;1.00;0.87;;;25.60;66.40;;;;;;5076301;28;20433;-82
2022/07/16 11:22:04;;;;;;;1.63;1.10;;;25.60;66.50;;;;;;5075796;28;20959;-82
2022/07/16 11:24:33;;;;;;;1.07;0.80;;;25.60;66.60;;;;;;5076108;28;20532;-87
2022/07/16 11:27:01;;;;;;;2.57;1.10;;;25.60;67.50;;;;;;5077732;28;20792;-92
2022/07/16 11:29:30;;;;;;;2.60;1.10;;;25.60;66.70;;;;;;5077838;28;20492;-94
2022/07/16 11:31:59;;;;;;;2.07;1.00;;;25.60;66.80;;;;;;5077998;28;20480;-91
2022/07/16 11:34:32;;;;;;;2.57;1.27;;;25.80;67.10;;;;;;5077716;28;20495;-94
2022/07/16 11:36:59;;;;;;;3.97;1.10;;;25.60;67.00;;;;;;5077066;28;20540;-94
2022/07/16 11:39:28;;;;;;;1.30;1.00;;;25.70;67.20;;;;;;5077484;28;20433;-85
2022/07/16 11:41:58;;;;;;;9.83;6.13;;;25.70;67.70;;;;;;5077274;28;20437;-95
2022/07/16 11:44:27;;;;;;;798.57;377.77;;;25.70;68.00;;;;;;5077479;28;20445;-94
2022/07/16 11:46:56;;;;;;;668.10;300.67;;;25.70;68.30;;;;;;5075734;28;20494;-85
2022/07/16 11:49:26;;;;;;;469.93;163.70;;;25.70;68.10;;;;;;5075518;28;20512;-83
2022/07/16 11:51:56;;;;;;;384.70;130.77;;;25.60;67.80;;;;;;5074735;28;20465;-83
2022/07/16 11:54:23;;;;;;;389.57;134.50;;;25.60;67.80;;;;;;5075095;28;20445;-82
2022/07/16 11:56:51;;;;;;;328.67;112.67;;;25.60;68.00;;;;;;5075643;28;20551;-88
2022/07/16 11:59:23;;;;;;;295.80;109.63;;;25.60;67.60;;;;;;5067182;28;20472;-89
2022/07/16 12:01:59;;;;;;;283.53;107.80;;;25.70;67.70;;;;;;5055661;28;20492;-86
2022/07/16 12:04:37;;;;;;;288.87;108.67;;;25.70;67.70;;;;;;5073889;28;20451;-84
2022/07/16 12:07:06;;;;;;;307.67;111.80;;;25.70;68.20;;;;;;5075116;28;20532;-84
2022/07/16 12:09:36;;;;;;;285.90;103.60;;;25.60;68.50;;;;;;5075435;28;20473;-85
2022/07/16 12:12:06;;;;;;;261.17;105.30;;;25.60;68.40;;;;;;5075375;28;20451;-84
2022/07/16 12:14:58;;;;;;;279.67;101.00;;;25.70;68.50;;;;;;5075610;28;20433;-84
2022/07/16 12:17:27;;;;;;;259.73;98.30;;;25.70;69.10;;;;;;5060405;28;20577;-84
2022/07/16 12:20:06;;;;;;;269.20;97.00;;;25.60;68.40;;;;;;5075331;28;20532;-94
2022/07/16 12:22:49;;;;;;;225.97;94.90;;;25.70;68.40;;;;;;5074946;28;20477;-93
2022/07/16 12:25:22;;;;;;;249.10;93.33;;;25.70;68.30;;;;;;5074943;28;20436;-84
2022/07/16 12:27:51;;;;;;;212.87;91.87;;;25.70;68.40;;;;;;5074548;28;20892;-94
2022/07/16 12:30:18;;;;;;;222.03;87.90;;;25.70;68.40;;;;;;5074773;28;20548;-84
2022/07/16 12:32:50;;;;;;;210.53;85.90;;;25.70;68.30;;;;;;5074283;28;20479;-93
2022/07/16 12:35:46;;;;;;;205.80;81.90;;;25.70;68.30;;;;;;5074453;28;20475;-84
2022/07/16 12:38:40;;;;;;;201.60;84.43;;;25.80;68.20;;;;;;5074489;28;20475;-84
2022/07/16 12:41:11;;;;;;;213.87;82.73;;;25.70;68.20;;;;;;5074647;28;20440;-94
2022/07/16 12:43:39;;;;;;;180.33;73.13;;;25.70;68.30;;;;;;5074967;28;20441;-84
2022/07/16 12:46:06;;;;;;;180.63;76.20;;;25.70;68.20;;;;;;5074763;28;20484;-93
2022/07/16 12:48:42;;;;;;;144.23;67.97;;;25.70;68.20;;;;;;5074840;28;20979;-84
2022/07/16 12:51:10;;;;;;;184.30;72.90;;;25.70;68.10;;;;;;5074731;28;20447;-84
2022/07/16 12:53:37;;;;;;;172.37;69.23;;;25.70;68.10;;;;;;5074694;28;20516;-84
2022/07/16 12:58:50;;;;;;;169.40;68.23;;;25.70;68.10;;;;;;5074922;28;20413;-84
2022/07/16 13:01:18;;;;;;;161.50;65.47;;;25.70;68.10;;;;;;5074520;28;20495;-84
2022/07/16 13:03:46;;;;;;;160.57;66.17;;;25.70;68.10;;;;;;5074680;28;20476;-93
2022/07/16 13:06:13;;;;;;;147.00;63.13;;;25.70;68.10;;;;;;5074503;28;20522;-84
2022/07/16 13:08:40;;;;;;;142.50;59.70;;;25.70;68.00;;;;;;5074205;28;20579;-84
2022/07/16 13:11:10;;;;;;;144.50;62.13;;;25.70;68.00;;;;;;5076068;28;20437;-83
2022/07/16 13:13:38;;;;;;;152.90;58.80;;;25.70;68.00;;;;;;5074441;28;20449;-84
2022/07/16 13:16:05;;;;;;;135.93;58.50;;;25.70;68.10;;;;;;5074187;28;21014;-84
2022/07/16 13:18:33;;;;;;;136.67;56.43;;;25.70;68.20;;;;;;5074281;28;20768;-84
2022/07/16 13:21:01;;;;;;;141.67;55.90;;;25.70;68.10;;;;;;5074291;28;20445;-84
2022/07/16 13:23:29;;;;;;;130.10;53.70;;;25.70;68.20;;;;;;5074101;28;20437;-84
2022/07/16 13:25:56;;;;;;;111.90;51.83;;;25.70;69.00;;;;;;5074084;28;21039;-84
2022/07/16 13:28:24;;;;;;;135.27;53.93;;;25.80;68.20;;;;;;5074345;28;20491;-84
2022/07/16 13:30:51;;;;;;;125.87;49.40;;;25.80;68.30;;;;;;5074262;28;20537;-88